Palmhurst, Texas
Current Conditions -  °F | °C
As of 4:33 AM on Monday 22 Dec 2014 (Local Time) from KMFE Reporting Station
Haze Haze  
Wind Chill: 60°   Ceiling: 200
Heat Index: 60°   Visibility: 0.75mi
Dew Point: 59°   Wind: 9mph
Humidity: 96%   Direction: 180°S
Pressure: 29.8"   Gusts: NA
Location:  26.2155°N, 98.325°W
Report Text: KMFE 221033Z AUTO 18008KT 3/4SM BR OVC002 16/15 A2980 RMK AO2 T01560150
Loading
Personal Weather Stations






























Interactive Weather Map New forecast layout! Learn more

10-Day Weather Forecast

Advertisements
Track Severe Weather on mobile